ソチ の空港の天気 - METARとTAF

ソチ空港 ( URSS / AER ) - ロシア ソチ
飛行場実況気象(Metar)
観測時間07/17 12:00 MSK (07/17 09:00 UTC)
風向・風速南東 7m/s
視程10km以上
天気現象
全天の4割程度の雲 雲底高度 760m
全天の8割程度の雲 雲底高度 3660m
気温25℃
湿度69%
気圧1009hPa
METARURSS 170900Z 14007MPS 9999 SCT025CB BKN120 25/19 Q1009 WS ALL RWY R06/090070 R02/090070 NOSIG RMK R02/16006G11MPS MT OBSC QFE756
過去の天気等 Google飛行場航空写真 Wunderground天気予報

過去48時間のMETAR

飛行場予報(TAF)
発表時間: 7/17 10:55 MSK (7/17 07:55 UTC)
予報対象時間: 17日12時 MSK ~ 18日12時 MSK
風向・風速南南東 6m/s 瞬間風速 11m/s
視程10km以上
全天の4割程度の積乱雲 雲底高度 910m
全天の8割程度の雲 雲底高度 3050m
17日12時 MSK ~ 17日21時 MSK に一時的に
風向・風速不定 7m/s 瞬間風速 12m/s
天気現象弱い雷雨
17日21時 MSK ~ 17日23時 MSK に徐々に
風向・風速東北東 5m/s
17日23時 MSK ~ 18日9時 MSK に一時的に
天気現象弱い雷雨
18日9時 MSK ~ 18日10時 MSK に徐々に
風向・風速南 5m/s 瞬間風速 10m/s
少しの雲 雲底高度 910m
TAF URSS 170755Z 1709/1809 15006G11MPS 9999 SCT030CB BKN100
TEMPO 1709/1718 VRB07G12MPS -TSRA
BECMG 1718/1720 06005MPS
TEMPO 1720/1806 -TSRA
BECMG 1806/1807 18005G10MPS FEW030